Time;durP1;ratioP1;P1;durP2;ratioP2;P2;SDS_P1;SDS_P2;PMS_P1;PMS_P2;Temp;Humidity;BMP_temperature;BMP_pressure;BME280_temperature;BME280_humidity;BME280_pressure;Samples;Min_cycle;Max_cycle;Signal;HPM_P1;HPM_P2
2020/12/10 00:01:16;;;;;;;39.50;16.92;;;1.60;99.90;;;;;;4995533;28;20030;-69
2020/12/10 00:03:46;;;;;;;39.75;15.57;;;1.60;99.90;;;;;;4980425;28;20460;-69
2020/12/10 00:06:40;;;;;;;36.33;15.52;;;1.60;99.90;;;;;;4980247;28;20119;-69
2020/12/10 00:09:08;;;;;;;37.08;14.27;;;1.60;99.90;;;;;;4995578;28;20327;-69
2020/12/10 00:11:36;;;;;;;40.58;15.25;;;1.60;99.90;;;;;;4995415;28;20026;-69
2020/12/10 00:14:08;;;;;;;48.67;16.02;;;1.60;99.90;;;;;;4979949;28;20093;-69
2020/12/10 00:16:35;;;;;;;43.33;16.33;;;1.60;99.90;;;;;;4995288;28;20045;-69
2020/12/10 00:19:03;;;;;;;38.05;14.32;;;1.60;99.90;;;;;;4980285;28;20019;-69
2020/12/10 00:21:30;;;;;;;44.47;17.58;;;1.60;99.90;;;;;;4980563;28;20074;-69
2020/12/10 00:23:58;;;;;;;47.83;17.00;;;1.60;99.90;;;;;;4980023;28;20023;-69
2020/12/10 00:26:25;;;;;;;44.80;15.95;;;1.60;99.90;;;;;;4980174;28;20069;-69
2020/12/10 00:28:53;;;;;;;38.50;15.90;;;1.60;99.90;;;;;;4980573;28;20027;-69
2020/12/10 00:31:20;;;;;;;43.15;15.65;;;1.60;99.90;;;;;;4995009;28;20042;-69
2020/12/10 00:33:48;;;;;;;43.25;16.60;;;1.60;99.90;;;;;;4979799;28;20086;-69
2020/12/10 00:36:15;;;;;;;48.65;18.23;;;1.60;99.90;;;;;;4978609;28;20030;-69
2020/12/10 00:38:43;;;;;;;49.15;16.92;;;1.60;99.90;;;;;;4979363;28;20026;-69
2020/12/10 00:41:14;;;;;;;46.83;18.38;;;1.60;99.90;;;;;;4979638;28;20023;-69
2020/12/10 00:43:41;;;;;;;45.88;17.02;;;1.60;99.90;;;;;;4994774;28;20053;-69
2020/12/10 00:46:09;;;;;;;45.08;16.33;;;1.60;99.90;;;;;;4980118;28;20030;-69
2020/12/10 00:48:36;;;;;;;45.03;16.48;;;1.60;99.90;;;;;;4979691;28;20038;-69
2020/12/10 00:51:04;;;;;;;43.67;15.48;;;1.70;99.90;;;;;;4994625;28;20061;-69
2020/12/10 00:53:31;;;;;;;39.10;15.07;;;1.70;99.90;;;;;;4979376;28;20030;-69
2020/12/10 00:55:59;;;;;;;39.85;15.27;;;1.60;99.90;;;;;;4979384;28;20019;-69
2020/12/10 00:58:26;;;;;;;36.30;14.82;;;1.60;99.90;;;;;;4979504;28;20113;-69
2020/12/10 01:00:54;;;;;;;41.95;15.75;;;1.70;99.90;;;;;;4979867;28;20106;-69
2020/12/10 01:03:22;;;;;;;42.35;16.02;;;1.70;99.90;;;;;;4979143;28;20031;-69
2020/12/10 01:05:49;;;;;;;40.33;15.65;;;1.70;99.90;;;;;;4979750;28;20025;-69
2020/12/10 01:08:17;;;;;;;40.72;16.77;;;1.70;99.90;;;;;;4979194;28;20027;-69
2020/12/10 01:10:44;;;;;;;44.22;17.45;;;1.70;99.90;;;;;;4979252;28;20031;-69
2020/12/10 01:13:12;;;;;;;39.88;16.77;;;1.70;99.90;;;;;;4994298;28;20034;-69
2020/12/10 01:15:39;;;;;;;56.42;19.70;;;1.70;99.90;;;;;;4979620;28;20047;-69
2020/12/10 01:18:07;;;;;;;50.88;18.58;;;1.70;99.90;;;;;;4979580;28;20411;-69
2020/12/10 01:20:34;;;;;;;45.47;18.77;;;1.70;99.90;;;;;;4994131;28;20037;-69
2020/12/10 01:23:02;;;;;;;53.08;20.48;;;1.70;99.90;;;;;;4979619;28;20373;-69
2020/12/10 01:25:29;;;;;;;56.75;20.52;;;1.70;99.90;;;;;;4979416;28;20085;-69
2020/12/10 01:27:58;;;;;;;43.63;17.77;;;1.60;99.90;;;;;;4978776;28;20023;-69
2020/12/10 01:30:25;;;;;;;50.72;20.38;;;1.70;99.90;;;;;;4979307;28;20054;-69
2020/12/10 01:32:52;;;;;;;47.42;18.83;;;1.70;99.90;;;;;;4978669;28;20038;-69
2020/12/10 01:35:20;;;;;;;54.20;20.92;;;1.70;99.90;;;;;;4978708;28;20023;-69
2020/12/10 01:37:48;;;;;;;52.58;20.65;;;1.70;99.90;;;;;;4978732;28;20023;-69
2020/12/10 01:40:16;;;;;;;51.08;20.98;;;1.70;99.90;;;;;;4978853;28;20330;-69
2020/12/10 01:42:44;;;;;;;53.80;20.38;;;1.70;99.90;;;;;;4978446;28;20030;-69
2020/12/10 01:45:11;;;;;;;46.72;20.50;;;1.70;99.90;;;;;;4978453;28;20110;-69
2020/12/10 01:47:39;;;;;;;49.65;19.25;;;1.70;99.90;;;;;;4978294;28;20025;-69
2020/12/10 01:50:08;;;;;;;54.72;18.75;;;1.60;99.90;;;;;;4978453;28;20019;-69
2020/12/10 01:52:36;;;;;;;57.17;18.95;;;1.70;99.90;;;;;;4978270;28;20035;-69
2020/12/10 01:55:04;;;;;;;68.40;20.08;;;1.70;99.90;;;;;;4978321;28;20053;-69
2020/12/10 01:57:32;;;;;;;56.00;18.30;;;1.70;99.90;;;;;;4978416;28;20034;-69
2020/12/10 02:00:00;;;;;;;58.83;19.38;;;1.60;99.90;;;;;;4977994;28;20408;-69
2020/12/10 02:02:27;;;;;;;56.63;16.75;;;1.60;99.90;;;;;;4978222;28;20069;-69
2020/12/10 02:04:55;;;;;;;55.35;18.92;;;1.70;99.90;;;;;;4993305;28;20439;-69
2020/12/10 02:07:22;;;;;;;50.45;18.30;;;1.70;99.90;;;;;;4978841;28;20053;-69
2020/12/10 02:09:49;;;;;;;53.60;19.65;;;1.70;99.90;;;;;;4978614;28;20105;-69
2020/12/10 02:12:17;;;;;;;50.40;20.38;;;1.70;99.90;;;;;;4993166;28;20055;-69
2020/12/10 02:14:44;;;;;;;55.40;19.67;;;1.70;99.90;;;;;;4978486;28;20023;-69
2020/12/10 02:17:12;;;;;;;56.67;20.90;;;1.70;99.90;;;;;;4977975;28;20427;-69
2020/12/10 02:19:39;;;;;;;57.88;20.80;;;1.70;99.90;;;;;;4978537;28;20467;-69
2020/12/10 02:22:07;;;;;;;59.95;22.48;;;1.70;99.90;;;;;;4977937;28;20023;-69
2020/12/10 02:24:34;;;;;;;52.50;19.77;;;1.70;99.90;;;;;;4977848;28;20035;-69
2020/12/10 02:27:01;;;;;;;53.95;20.23;;;1.70;99.90;;;;;;4977913;28;20038;-69
2020/12/10 02:29:29;;;;;;;60.70;21.58;;;1.70;99.90;;;;;;4977791;28;20022;-69
2020/12/10 02:31:57;;;;;;;57.45;21.25;;;1.60;99.90;;;;;;4977975;28;20497;-69
2020/12/10 02:34:24;;;;;;;54.25;20.23;;;1.60;99.90;;;;;;4992849;28;20096;-69
2020/12/10 02:36:52;;;;;;;56.13;21.17;;;1.60;99.90;;;;;;4978328;28;20022;-69
2020/12/10 02:39:20;;;;;;;62.33;22.00;;;1.60;99.90;;;;;;4977718;28;20051;-69
2020/12/10 02:41:48;;;;;;;57.50;20.85;;;1.60;99.90;;;;;;4977923;28;20319;-69
2020/12/10 02:44:15;;;;;;;49.80;21.63;;;1.70;99.90;;;;;;4977546;28;20035;-69
2020/12/10 02:46:43;;;;;;;57.53;22.23;;;1.60;99.90;;;;;;4978135;28;20558;-69
2020/12/10 02:49:11;;;;;;;57.47;21.60;;;1.60;99.90;;;;;;4977603;28;20442;-69
2020/12/10 02:51:43;;;;;;;53.40;21.10;;;1.60;99.90;;;;;;4992962;28;20026;-69
2020/12/10 02:54:11;;;;;;;52.47;19.77;;;1.60;99.90;;;;;;4977470;28;20022;-69
2020/12/10 02:56:39;;;;;;;52.95;20.58;;;1.60;99.90;;;;;;4978143;28;20054;-69
2020/12/10 02:59:06;;;;;;;55.42;21.67;;;1.60;99.90;;;;;;4977406;28;20050;-70
2020/12/10 03:01:35;;;;;;;63.50;22.67;;;1.60;99.90;;;;;;4981218;28;20023;-69
2020/12/10 03:04:03;;;;;;;69.20;22.20;;;1.60;99.90;;;;;;4981998;28;20023;-69
2020/12/10 03:06:31;;;;;;;62.75;20.52;;;1.60;99.90;;;;;;4981476;28;20053;-69
2020/12/10 03:08:59;;;;;;;59.17;21.63;;;1.60;99.90;;;;;;4996585;28;20419;-69
2020/12/10 03:11:26;;;;;;;66.47;23.23;;;1.60;99.90;;;;;;4996719;28;20031;-69
2020/12/10 03:13:54;;;;;;;55.03;20.50;;;1.60;99.90;;;;;;4981152;28;20030;-69
2020/12/10 03:16:21;;;;;;;64.03;22.67;;;1.60;99.90;;;;;;4996417;28;20447;-69
2020/12/10 03:18:49;;;;;;;64.38;21.15;;;1.60;99.90;;;;;;4981791;28;20077;-69
2020/12/10 03:21:20;;;;;;;62.85;23.33;;;1.60;99.90;;;;;;4981101;28;20106;-69
2020/12/10 03:23:48;;;;;;;61.45;21.30;;;1.60;99.90;;;;;;4981678;28;20089;-69
2020/12/10 03:26:15;;;;;;;60.38;21.63;;;1.60;99.90;;;;;;4981850;28;20350;-69
2020/12/10 03:28:43;;;;;;;60.53;23.23;;;1.60;99.90;;;;;;4981549;28;20019;-69
2020/12/10 03:31:10;;;;;;;71.32;23.17;;;1.60;99.90;;;;;;4979883;28;20081;-69
2020/12/10 03:33:38;;;;;;;55.70;20.45;;;1.60;99.90;;;;;;4981336;28;20326;-69
2020/12/10 03:36:06;;;;;;;62.17;24.27;;;1.50;99.90;;;;;;4981372;28;20105;-69
2020/12/10 03:38:33;;;;;;;66.65;23.42;;;1.60;99.90;;;;;;4980827;28;20027;-69
2020/12/10 03:41:00;;;;;;;68.30;22.10;;;1.50;99.90;;;;;;4981520;28;20023;-69
2020/12/10 03:43:28;;;;;;;54.97;22.42;;;1.60;99.90;;;;;;4980743;28;20043;-69
2020/12/10 03:45:55;;;;;;;64.57;23.73;;;1.60;99.90;;;;;;4980720;28;20105;-69
2020/12/10 03:48:24;;;;;;;68.60;23.67;;;1.60;99.90;;;;;;4980785;28;20034;-69
2020/12/10 03:50:52;;;;;;;61.13;22.10;;;1.60;99.90;;;;;;4995875;28;20038;-69
2020/12/10 03:53:19;;;;;;;54.85;21.85;;;1.60;99.90;;;;;;4980480;28;20023;-69
2020/12/10 03:55:47;;;;;;;63.42;22.80;;;1.60;99.90;;;;;;4995715;28;20027;-69
2020/12/10 03:58:14;;;;;;;59.67;22.70;;;1.50;99.90;;;;;;4980846;28;20054;-70
2020/12/10 04:00:42;;;;;;;58.45;20.88;;;1.60;99.90;;;;;;4980954;28;20031;-69
2020/12/10 04:03:10;;;;;;;61.42;21.80;;;1.50;99.90;;;;;;4980457;28;20102;-70
2020/12/10 04:05:38;;;;;;;62.17;20.38;;;1.50;99.90;;;;;;4980902;28;20030;-69
2020/12/10 04:08:05;;;;;;;66.15;22.88;;;1.50;99.90;;;;;;4981013;28;20407;-69
2020/12/10 04:10:33;;;;;;;66.88;21.73;;;1.50;99.90;;;;;;4980615;28;20030;-69
2020/12/10 04:13:00;;;;;;;71.22;19.73;;;1.50;99.90;;;;;;4995205;28;20070;-69
2020/12/10 04:15:28;;;;;;;65.13;22.55;;;1.50;99.90;;;;;;4995642;28;20292;-69
2020/12/10 04:17:56;;;;;;;64.88;22.40;;;1.50;99.90;;;;;;4980843;28;20019;-69
2020/12/10 04:20:23;;;;;;;63.30;21.80;;;1.60;99.90;;;;;;4980069;28;20081;-69
2020/12/10 04:22:51;;;;;;;66.45;22.98;;;1.60;99.90;;;;;;4980113;28;20503;-69
2020/12/10 04:25:19;;;;;;;61.78;22.02;;;1.60;99.90;;;;;;4995166;28;20034;-69
2020/12/10 04:27:47;;;;;;;56.50;19.65;;;1.60;99.90;;;;;;4980067;28;20022;-69
2020/12/10 04:30:20;;;;;;;70.72;23.30;;;1.60;99.90;;;;;;4979840;28;20501;-69
2020/12/10 04:32:49;;;;;;;75.97;23.13;;;1.60;99.90;;;;;;4980621;28;20031;-69
2020/12/10 04:35:18;;;;;;;66.93;22.20;;;1.60;99.90;;;;;;4979763;28;20034;-69
2020/12/10 04:37:45;;;;;;;62.15;21.70;;;1.60;99.90;;;;;;4980217;28;20023;-69
2020/12/10 04:40:13;;;;;;;62.17;21.50;;;1.60;99.90;;;;;;4979684;28;20027;-69
2020/12/10 04:42:43;;;;;;;66.80;21.90;;;1.60;99.90;;;;;;4980110;28;20113;-69
2020/12/10 04:45:11;;;;;;;57.28;21.52;;;1.60;99.90;;;;;;4979492;28;20367;-69
2020/12/10 04:47:40;;;;;;;64.25;22.23;;;1.60;99.90;;;;;;4994743;28;20019;-69
2020/12/10 04:50:22;;;;;;;61.50;22.70;;;1.60;99.90;;;;;;4979538;28;20070;-69
2020/12/10 04:52:51;;;;;;;61.83;23.38;;;1.60;99.90;;;;;;4979994;28;20025;-70
2020/12/10 04:55:21;;;;;;;66.32;22.83;;;1.60;99.90;;;;;;4979401;28;20023;-69
2020/12/10 04:57:51;;;;;;;63.28;22.20;;;1.60;99.90;;;;;;4994506;28;20327;-69
2020/12/10 05:00:19;;;;;;;63.85;22.10;;;1.60;99.90;;;;;;4979114;28;20067;-69
2020/12/10 05:02:47;;;;;;;65.60;23.17;;;1.60;99.90;;;;;;4979722;28;20345;-69
2020/12/10 05:05:22;;;;;;;59.35;22.25;;;1.60;99.90;;;;;;4979485;28;20023;-69
2020/12/10 05:07:50;;;;;;;68.63;23.00;;;1.60;99.90;;;;;;4979857;28;20018;-69
2020/12/10 05:10:17;;;;;;;67.20;23.50;;;1.60;99.90;;;;;;4994322;28;20081;-69
2020/12/10 05:12:46;;;;;;;71.13;22.98;;;1.60;99.90;;;;;;4979191;28;20098;-69
2020/12/10 05:15:31;;;;;;;74.90;22.90;;;1.60;99.90;;;;;;4980106;28;20304;-69
2020/12/10 05:18:10;;;;;;;72.93;23.30;;;1.60;99.90;;;;;;4979069;28;20023;-69
2020/12/10 05:20:51;;;;;;;74.38;23.75;;;1.50;99.90;;;;;;4979295;28;20066;-69
2020/12/10 05:23:38;;;;;;;69.18;22.20;;;1.50;99.90;;;;;;4978721;28;20300;-69
2020/12/10 05:26:07;;;;;;;65.63;24.23;;;1.50;99.90;;;;;;4978864;28;20330;-69
2020/12/10 05:28:46;;;;;;;72.00;25.13;;;1.50;99.90;;;;;;4979091;28;20331;-69
2020/12/10 05:31:16;;;;;;;82.47;25.60;;;1.50;99.90;;;;;;4978749;28;20019;-69
2020/12/10 05:34:03;;;;;;;78.95;25.15;;;1.50;99.90;;;;;;4978845;28;20019;-69
2020/12/10 05:36:32;;;;;;;76.65;25.25;;;1.50;99.90;;;;;;4978755;28;20363;-69
2020/12/10 05:39:10;;;;;;;69.47;24.08;;;1.50;99.90;;;;;;4978636;28;20031;-69
2020/12/10 05:41:43;;;;;;;68.63;22.63;;;1.50;99.90;;;;;;4978742;28;20019;-69
2020/12/10 05:44:21;;;;;;;69.25;24.20;;;1.50;99.90;;;;;;4979015;28;20023;-69
2020/12/10 05:47:04;;;;;;;76.88;24.55;;;1.50;99.90;;;;;;4993667;28;20054;-69
2020/12/10 05:49:32;;;;;;;69.97;22.65;;;1.50;99.90;;;;;;4978353;28;20069;-69
2020/12/10 05:52:05;;;;;;;77.90;24.23;;;1.50;99.90;;;;;;4993929;28;20117;-69
2020/12/10 05:54:35;;;;;;;75.47;24.83;;;1.50;99.90;;;;;;4978798;28;20427;-69
2020/12/10 05:57:06;;;;;;;78.55;23.02;;;1.50;99.90;;;;;;4978304;28;20031;-69
2020/12/10 05:59:34;;;;;;;73.15;23.42;;;1.50;99.90;;;;;;4977971;28;20071;-70
2020/12/10 06:02:04;;;;;;;78.90;22.65;;;1.50;99.90;;;;;;4993378;28;20374;-70
2020/12/10 06:04:32;;;;;;;65.28;23.70;;;1.50;99.90;;;;;;4993291;28;20031;-70
2020/12/10 06:07:01;;;;;;;80.10;25.08;;;1.50;99.90;;;;;;4993309;28;20093;-69
2020/12/10 06:09:29;;;;;;;81.50;23.35;;;1.50;99.90;;;;;;4978820;28;20027;-70
2020/12/10 06:12:05;;;;;;;77.35;26.02;;;1.50;99.90;;;;;;4993321;28;20031;-69
2020/12/10 06:14:54;;;;;;;72.18;25.17;;;1.50;99.90;;;;;;4977867;28;20031;-68
2020/12/10 06:17:22;;;;;;;80.72;24.98;;;1.50;99.90;;;;;;4978527;28;20423;-68
2020/12/10 06:19:50;;;;;;;68.28;23.27;;;1.50;99.90;;;;;;4978557;28;20120;-68
2020/12/10 06:22:37;;;;;;;66.95;20.83;;;1.50;99.90;;;;;;4993118;28;20025;-68
2020/12/10 06:25:25;;;;;;;75.28;24.13;;;1.50;99.90;;;;;;4977918;28;20049;-68
2020/12/10 06:27:53;;;;;;;64.40;22.60;;;1.50;99.90;;;;;;4977828;28;20027;-68
2020/12/10 06:30:22;;;;;;;75.10;23.30;;;1.50;99.90;;;;;;4978337;28;20109;-68
2020/12/10 06:32:54;;;;;;;73.57;23.13;;;1.50;99.90;;;;;;4992907;28;20030;-68
2020/12/10 06:35:37;;;;;;;71.25;23.92;;;1.50;99.90;;;;;;4991992;28;20100;-68
2020/12/10 06:38:10;;;;;;;75.43;22.30;;;1.50;99.90;;;;;;4977883;28;20054;-68
2020/12/10 06:40:40;;;;;;;81.38;23.55;;;1.50;99.90;;;;;;4977632;28;20023;-68
2020/12/10 06:43:09;;;;;;;70.03;23.40;;;1.50;99.90;;;;;;4977679;28;20418;-68
2020/12/10 06:45:41;;;;;;;65.88;22.73;;;1.50;99.90;;;;;;4977634;28;20370;-68
2020/12/10 06:48:12;;;;;;;75.80;23.83;;;1.50;99.90;;;;;;4977771;28;20039;-68
2020/12/10 06:50:41;;;;;;;76.20;21.67;;;1.50;99.90;;;;;;4992743;28;20031;-67
2020/12/10 06:53:23;;;;;;;79.38;22.92;;;1.60;99.90;;;;;;4992731;28;20034;-74
2020/12/10 06:55:58;;;;;;;76.57;22.85;;;1.50;99.90;;;;;;4978176;28;20019;-72
2020/12/10 06:58:38;;;;;;;70.88;21.67;;;1.60;99.90;;;;;;4992566;28;20074;-70
2020/12/10 07:01:24;;;;;;;74.68;22.15;;;1.60;99.90;;;;;;4978036;28;20019;-68
2020/12/10 07:03:56;;;;;;;75.32;22.85;;;1.60;99.90;;;;;;4977644;28;20355;-69
2020/12/10 07:06:25;;;;;;;75.57;20.88;;;1.60;99.90;;;;;;4977596;28;20081;-69
2020/12/10 07:09:21;;;;;;;66.75;22.67;;;1.60;99.90;;;;;;4978045;28;20038;-67
2020/12/10 07:11:49;;;;;;;70.32;20.50;;;1.60;99.90;;;;;;4965632;28;20312;-69
2020/12/10 07:14:28;;;;;;;78.00;22.90;;;1.60;99.90;;;;;;4977458;28;20027;-69
2020/12/10 07:16:57;;;;;;;64.03;21.10;;;1.60;99.90;;;;;;4977473;28;20315;-69
2020/12/10 07:19:24;;;;;;;75.07;23.13;;;1.60;99.90;;;;;;4977418;28;20022;-69
2020/12/10 07:21:51;;;;;;;78.38;23.35;;;1.60;99.90;;;;;;4977449;28;20462;-69
2020/12/10 07:24:19;;;;;;;73.00;22.63;;;1.60;99.90;;;;;;4977255;28;20035;-69
2020/12/10 07:26:47;;;;;;;78.35;24.30;;;1.60;99.90;;;;;;4977950;28;20022;-69
2020/12/10 07:29:14;;;;;;;69.72;21.77;;;1.60;99.90;;;;;;4977289;28;20030;-67
2020/12/10 07:31:43;;;;;;;72.38;21.88;;;1.60;99.90;;;;;;4977552;28;20026;-68
2020/12/10 07:34:14;;;;;;;83.15;23.48;;;1.60;99.90;;;;;;4977783;28;20423;-68
2020/12/10 07:36:53;;;;;;;70.30;22.00;;;1.60;99.90;;;;;;4977324;28;20050;-69
2020/12/10 07:39:32;;;;;;;62.05;20.35;;;1.60;99.90;;;;;;4977274;28;20031;-67
2020/12/10 07:41:59;;;;;;;75.63;22.83;;;1.70;99.90;;;;;;4977649;28;20023;-69
2020/12/10 07:44:33;;;;;;;63.45;21.48;;;1.60;99.90;;;;;;4977143;28;20023;-69
2020/12/10 07:47:02;;;;;;;74.68;22.40;;;1.70;99.90;;;;;;4980760;28;20029;-67
2020/12/10 07:49:32;;;;;;;68.22;21.08;;;1.70;99.90;;;;;;4980745;28;20082;-71
2020/12/10 07:52:11;;;;;;;69.38;23.83;;;1.70;99.90;;;;;;4980866;28;20111;-70
2020/12/10 07:54:57;;;;;;;71.38;20.98;;;1.70;99.90;;;;;;4981084;28;20029;-67
2020/12/10 07:57:44;;;;;;;77.95;24.10;;;1.70;99.90;;;;;;4980978;28;20027;-68
2020/12/10 08:00:19;;;;;;;80.60;23.52;;;1.70;99.90;;;;;;4980257;28;20137;-68
2020/12/10 08:03:38;;;;;;;77.75;23.95;;;1.70;99.90;;;;;;4981249;28;20058;-68
2020/12/10 08:06:10;;;;;;;70.53;22.13;;;1.80;99.90;;;;;;4976763;28;20030;-68
2020/12/10 08:08:42;;;;;;;75.00;21.38;;;1.80;99.90;;;;;;4980332;28;20110;-68
2020/12/10 08:11:20;;;;;;;58.13;20.83;;;1.80;99.90;;;;;;4980822;28;20023;-68
2020/12/10 08:14:13;;;;;;;74.70;22.90;;;1.80;99.90;;;;;;4980132;28;20038;-68
2020/12/10 08:16:45;;;;;;;74.35;24.77;;;1.80;99.90;;;;;;4977954;28;20427;-68
2020/12/10 08:19:13;;;;;;;82.00;25.23;;;1.80;99.90;;;;;;4980133;28;20074;-68
2020/12/10 08:21:42;;;;;;;71.38;23.27;;;1.80;99.90;;;;;;4980003;28;20023;-68
2020/12/10 08:24:09;;;;;;;77.72;22.10;;;1.80;99.90;;;;;;4980219;28;20026;-68
2020/12/10 08:26:37;;;;;;;73.35;23.15;;;1.80;99.90;;;;;;4980944;28;20307;-68
2020/12/10 08:29:04;;;;;;;71.57;23.60;;;1.90;99.90;;;;;;4980369;28;20022;-68
2020/12/10 08:31:33;;;;;;;73.13;21.65;;;1.90;99.90;;;;;;4979940;28;20023;-68
2020/12/10 08:34:01;;;;;;;75.70;22.30;;;1.90;99.90;;;;;;4979797;28;20030;-71
2020/12/10 08:36:35;;;;;;;64.18;24.05;;;1.90;99.90;;;;;;4979860;28;20022;-68
2020/12/10 08:39:04;;;;;;;61.85;19.55;;;1.90;99.90;;;;;;4979789;28;20319;-69
2020/12/10 08:41:34;;;;;;;51.95;19.83;;;1.90;99.90;;;;;;4979916;28;20027;-67
2020/12/10 08:44:08;;;;;;;60.35;19.40;;;1.90;99.90;;;;;;4979765;28;20038;-68
2020/12/10 08:46:37;;;;;;;56.03;19.10;;;2.00;99.90;;;;;;4979590;28;20110;-68
2020/12/10 08:49:18;;;;;;;57.15;17.30;;;2.00;99.90;;;;;;4979468;28;20109;-68
2020/12/10 08:51:48;;;;;;;55.20;18.67;;;2.00;99.90;;;;;;4979593;28;20023;-68
2020/12/10 08:54:18;;;;;;;48.78;17.13;;;2.00;99.90;;;;;;4979377;28;20445;-68
2020/12/10 08:56:46;;;;;;;50.75;16.42;;;2.10;99.90;;;;;;4978677;28;20050;-68
2020/12/10 08:59:14;;;;;;;49.80;17.83;;;2.10;99.90;;;;;;4979008;28;20050;-68
2020/12/10 09:01:52;;;;;;;52.78;18.08;;;2.10;99.90;;;;;;4979550;28;20034;-68
2020/12/10 09:04:20;;;;;;;51.35;16.48;;;2.20;99.90;;;;;;4979265;28;20037;-68
2020/12/10 09:06:47;;;;;;;49.40;17.10;;;2.20;99.90;;;;;;4978874;28;20097;-68
2020/12/10 09:09:15;;;;;;;51.65;18.13;;;2.20;99.90;;;;;;4979760;28;20051;-68
2020/12/10 09:11:47;;;;;;;57.53;18.98;;;2.20;99.90;;;;;;4979161;28;20022;-68
2020/12/10 09:14:14;;;;;;;51.65;17.52;;;2.30;99.90;;;;;;4979031;28;20046;-68
2020/12/10 09:16:42;;;;;;;49.35;17.60;;;2.30;99.90;;;;;;4979138;28;20030;-68
2020/12/10 09:19:10;;;;;;;51.97;15.70;;;2.30;99.90;;;;;;4979653;28;20307;-68
2020/12/10 09:21:39;;;;;;;48.22;17.40;;;2.40;99.90;;;;;;4979042;28;20015;-68
2020/12/10 09:24:06;;;;;;;54.30;17.75;;;2.40;99.90;;;;;;4979486;28;20082;-68
2020/12/10 09:26:38;;;;;;;48.45;17.25;;;2.40;99.90;;;;;;4994156;28;20118;-68
2020/12/10 09:29:06;;;;;;;42.65;15.18;;;2.50;99.90;;;;;;4979055;28;20081;-68
2020/12/10 09:31:34;;;;;;;45.45;15.45;;;2.50;99.90;;;;;;4979331;28;20034;-68
2020/12/10 09:34:02;;;;;;;48.47;16.30;;;2.50;99.90;;;;;;4979245;28;20035;-68
2020/12/10 09:36:29;;;;;;;50.22;17.13;;;2.50;99.90;;;;;;4993853;28;20019;-68
2020/12/10 09:38:57;;;;;;;45.80;15.68;;;2.60;99.90;;;;;;4979396;28;20474;-68
2020/12/10 09:41:24;;;;;;;45.30;14.15;;;2.60;99.90;;;;;;4978663;28;20026;-69
2020/12/10 09:43:52;;;;;;;47.13;16.23;;;2.60;99.90;;;;;;4993688;28;20034;-68
2020/12/10 09:46:19;;;;;;;42.22;15.30;;;2.70;99.90;;;;;;4979064;28;20033;-68
2020/12/10 09:48:46;;;;;;;41.70;15.20;;;2.70;99.90;;;;;;4979054;28;20029;-68
2020/12/10 09:51:14;;;;;;;40.42;14.70;;;2.80;99.90;;;;;;4978518;28;20327;-68
2020/12/10 09:53:46;;;;;;;35.20;13.40;;;2.80;99.90;;;;;;4978346;28;20026;-68
2020/12/10 09:58:48;;;;;;;38.67;14.10;;;2.80;99.90;;;;;;4978005;28;20054;-68
2020/12/10 10:01:15;;;;;;;42.17;14.68;;;2.80;99.90;;;;;;4978186;28;20050;-68
2020/12/10 10:03:44;;;;;;;37.55;13.93;;;2.80;99.90;;;;;;4978248;28;20105;-68
2020/12/10 10:06:12;;;;;;;39.78;15.15;;;2.90;99.90;;;;;;4978229;28;20435;-68
2020/12/10 10:08:40;;;;;;;35.15;13.95;;;2.90;99.90;;;;;;4993059;28;20051;-68
2020/12/10 10:11:08;;;;;;;37.72;13.45;;;2.90;99.90;;;;;;4977566;28;20198;-68
2020/12/10 10:13:36;;;;;;;32.70;13.65;;;2.90;99.90;;;;;;4977860;28;20054;-68
2020/12/10 10:16:03;;;;;;;37.45;14.75;;;2.90;99.90;;;;;;4978564;28;20104;-68
2020/12/10 10:18:31;;;;;;;36.80;13.73;;;2.90;99.90;;;;;;4993192;28;20434;-68
2020/12/10 10:20:59;;;;;;;39.65;13.80;;;2.90;99.90;;;;;;4978561;28;20411;-68
2020/12/10 10:23:27;;;;;;;31.77;12.23;;;2.90;99.90;;;;;;4977962;28;20027;-68
2020/12/10 10:25:56;;;;;;;37.78;14.15;;;3.00;99.90;;;;;;4978272;28;20030;-69
2020/12/10 10:28:25;;;;;;;38.38;14.18;;;3.00;99.90;;;;;;4977849;28;20026;-68
2020/12/10 10:30:53;;;;;;;35.63;13.18;;;3.00;99.90;;;;;;4977993;28;20327;-68
2020/12/10 10:33:23;;;;;;;32.47;14.35;;;3.00;99.90;;;;;;4992926;28;20035;-68
2020/12/10 10:35:53;;;;;;;32.70;12.27;;;3.10;99.90;;;;;;4977798;28;20392;-68
2020/12/10 10:38:22;;;;;;;32.92;13.45;;;3.10;99.90;;;;;;4977804;28;20019;-68
2020/12/10 10:40:50;;;;;;;37.65;14.48;;;3.10;99.90;;;;;;4978304;28;20027;-68
2020/12/10 10:43:17;;;;;;;29.77;12.77;;;3.10;99.90;;;;;;4993199;28;20097;-68
2020/12/10 10:45:45;;;;;;;30.42;12.63;;;3.20;99.90;;;;;;4977643;28;20065;-69
2020/12/10 10:48:13;;;;;;;48.80;16.55;;;3.20;99.90;;;;;;4978348;28;20027;-68
2020/12/10 10:50:41;;;;;;;43.60;17.05;;;3.20;99.90;;;;;;4978213;28;20027;-68
2020/12/10 10:53:08;;;;;;;31.85;11.63;;;3.20;99.90;;;;;;4977888;28;20031;-69
2020/12/10 10:55:36;;;;;;;28.48;11.52;;;3.20;99.90;;;;;;4992648;28;20065;-68
2020/12/10 10:58:03;;;;;;;33.42;12.45;;;3.20;99.90;;;;;;4977473;28;20030;-68
2020/12/10 11:00:30;;;;;;;33.90;13.45;;;3.20;99.90;;;;;;4977382;28;20163;-68
2020/12/10 11:02:58;;;;;;;27.98;13.60;;;3.30;99.90;;;;;;4978343;28;20015;-68
2020/12/10 11:05:25;;;;;;;30.35;13.57;;;3.30;99.90;;;;;;4977495;28;20077;-68
2020/12/10 11:07:53;;;;;;;30.73;13.38;;;3.30;99.90;;;;;;4992599;28;20023;-69
2020/12/10 11:10:22;;;;;;;38.75;14.30;;;3.30;99.90;;;;;;4977676;28;20026;-68
2020/12/10 11:12:50;;;;;;;29.60;12.52;;;3.30;99.90;;;;;;4977378;28;20023;-68
2020/12/10 11:15:18;;;;;;;37.30;13.43;;;3.40;99.90;;;;;;4992459;28;20086;-68
2020/12/10 11:17:46;;;;;;;29.08;12.45;;;3.40;99.90;;;;;;4977725;28;20109;-69
2020/12/10 11:20:14;;;;;;;34.60;13.95;;;3.40;99.90;;;;;;4977903;28;20069;-68
2020/12/10 11:22:42;;;;;;;32.50;11.88;;;3.40;99.90;;;;;;4981148;28;20139;-68
2020/12/10 11:25:10;;;;;;;30.52;11.65;;;3.50;99.90;;;;;;4981594;28;20031;-68
2020/12/10 11:27:38;;;;;;;32.15;12.15;;;3.50;99.90;;;;;;4996663;28;20022;-71
2020/12/10 11:30:06;;;;;;;32.75;12.50;;;3.50;99.90;;;;;;4981272;28;20038;-67
2020/12/10 11:32:35;;;;;;;45.33;16.48;;;3.50;99.90;;;;;;4981295;28;20034;-68
2020/12/10 11:35:03;;;;;;;39.10;15.52;;;3.50;99.90;;;;;;4980871;28;20041;-68
2020/12/10 11:37:30;;;;;;;42.90;14.15;;;3.60;99.90;;;;;;4996255;28;20050;-67
2020/12/10 11:39:58;;;;;;;31.77;12.00;;;3.60;99.90;;;;;;4981402;28;20019;-68
2020/12/10 11:42:29;;;;;;;32.05;14.85;;;3.60;99.90;;;;;;4980772;28;20019;-68
2020/12/10 11:45:00;;;;;;;34.40;13.93;;;3.60;99.90;;;;;;4981320;28;20047;-69
2020/12/10 11:47:29;;;;;;;34.25;13.23;;;3.60;99.90;;;;;;4981536;28;20030;-68
2020/12/10 11:49:57;;;;;;;35.17;13.90;;;3.70;99.90;;;;;;4981286;28;20057;-69
2020/12/10 11:52:24;;;;;;;31.65;13.15;;;3.60;99.90;;;;;;4980562;28;20059;-69
2020/12/10 11:54:53;;;;;;;40.90;15.25;;;3.60;99.90;;;;;;4980527;28;20427;-69
2020/12/10 11:57:20;;;;;;;36.45;14.82;;;3.60;99.90;;;;;;4981130;28;20035;-69
2020/12/10 11:59:48;;;;;;;34.00;15.73;;;3.60;99.90;;;;;;4980440;28;20039;-69
2020/12/10 12:02:16;;;;;;;28.23;12.13;;;3.60;99.90;;;;;;4995627;28;20059;-69
2020/12/10 12:04:43;;;;;;;33.65;13.27;;;3.60;99.90;;;;;;4980473;28;20054;-69
2020/12/10 12:07:12;;;;;;;29.88;12.25;;;3.60;99.90;;;;;;4980469;28;20378;-69
2020/12/10 12:09:41;;;;;;;27.23;11.93;;;3.70;99.90;;;;;;4980912;28;20031;-69
2020/12/10 12:12:08;;;;;;;29.63;12.45;;;3.60;99.90;;;;;;4980299;28;20371;-69
2020/12/10 12:14:36;;;;;;;32.60;13.90;;;3.60;99.90;;;;;;4980133;28;20168;-69
2020/12/10 12:17:04;;;;;;;35.75;12.48;;;3.70;99.90;;;;;;4980698;28;20051;-69
2020/12/10 12:19:31;;;;;;;28.95;12.30;;;3.70;99.90;;;;;;4980133;28;20077;-69
2020/12/10 12:22:02;;;;;;;31.35;12.80;;;3.80;99.90;;;;;;4980162;28;20029;-69
2020/12/10 12:24:30;;;;;;;30.15;13.07;;;3.80;99.90;;;;;;4980100;28;20033;-69
2020/12/10 12:26:57;;;;;;;30.48;13.82;;;3.80;99.90;;;;;;4980123;28;20027;-69
2020/12/10 12:29:25;;;;;;;34.17;14.20;;;3.90;99.90;;;;;;4979972;28;20018;-69
2020/12/10 12:31:53;;;;;;;32.80;13.48;;;3.90;99.90;;;;;;4979883;28;20105;-69
2020/12/10 12:34:20;;;;;;;33.03;13.77;;;3.90;99.90;;;;;;4979879;28;20035;-69
2020/12/10 12:36:48;;;;;;;31.42;14.23;;;3.90;99.90;;;;;;4979929;28;20437;-69
2020/12/10 12:39:16;;;;;;;28.85;11.27;;;3.90;99.90;;;;;;4995025;28;20027;-69
2020/12/10 12:41:44;;;;;;;29.25;12.52;;;3.90;99.90;;;;;;4994956;28;20033;-69
2020/12/10 12:44:12;;;;;;;30.05;13.32;;;3.90;99.90;;;;;;4979655;28;20447;-69
2020/12/10 12:46:40;;;;;;;30.42;12.63;;;4.00;99.90;;;;;;4980005;28;20027;-69
2020/12/10 12:49:08;;;;;;;27.27;11.80;;;4.00;99.90;;;;;;4994812;28;20304;-69
2020/12/10 12:51:36;;;;;;;25.05;11.20;;;4.00;99.90;;;;;;4979591;28;20106;-69